sensor_id;sensor_type;location;lat;lon;timestamp;P1;durP1;ratioP1;P2;durP2;ratioP2
75386;SDS011;63966;47.914;22.266;2023-04-24T00:02:32;12.13;;;6.93;;
75386;SDS011;63966;47.914;22.266;2023-04-24T00:05:36;14.33;;;6.93;;
75386;SDS011;63966;47.914;22.266;2023-04-24T00:08:42;12.00;;;6.90;;
75386;SDS011;63966;47.914;22.266;2023-04-24T00:11:46;14.88;;;7.13;;
75386;SDS011;63966;47.914;22.266;2023-04-24T00:14:49;11.23;;;6.65;;
75386;SDS011;63966;47.914;22.266;2023-04-24T00:17:53;12.10;;;7.07;;
75386;SDS011;63966;47.914;22.266;2023-04-24T00:20:56;15.10;;;7.37;;
75386;SDS011;63966;47.914;22.266;2023-04-24T00:24:00;12.25;;;6.50;;
75386;SDS011;63966;47.914;22.266;2023-04-24T00:27:04;12.25;;;6.63;;
75386;SDS011;63966;47.914;22.266;2023-04-24T00:30:08;10.05;;;6.03;;
75386;SDS011;63966;47.914;22.266;2023-04-24T00:33:17;12.20;;;6.45;;
75386;SDS011;63966;47.914;22.266;2023-04-24T00:36:21;13.63;;;6.57;;
75386;SDS011;63966;47.914;22.266;2023-04-24T00:39:25;13.55;;;6.85;;
75386;SDS011;63966;47.914;22.266;2023-04-24T00:42:28;11.60;;;6.30;;
75386;SDS011;63966;47.914;22.266;2023-04-24T00:45:32;11.65;;;6.35;;
75386;SDS011;63966;47.914;22.266;2023-04-24T00:48:36;15.25;;;6.65;;
75386;SDS011;63966;47.914;22.266;2023-04-24T00:51:43;12.23;;;6.63;;
75386;SDS011;63966;47.914;22.266;2023-04-24T00:54:52;13.88;;;6.47;;
75386;SDS011;63966;47.914;22.266;2023-04-24T00:57:55;15.18;;;7.03;;
75386;SDS011;63966;47.914;22.266;2023-04-24T01:00:59;12.75;;;6.75;;
75386;SDS011;63966;47.914;22.266;2023-04-24T01:04:04;12.32;;;6.90;;
75386;SDS011;63966;47.914;22.266;2023-04-24T01:07:10;14.47;;;7.03;;
75386;SDS011;63966;47.914;22.266;2023-04-24T01:10:13;12.88;;;7.25;;
75386;SDS011;63966;47.914;22.266;2023-04-24T01:13:20;14.45;;;7.07;;
75386;SDS011;63966;47.914;22.266;2023-04-24T01:16:24;11.48;;;7.03;;
75386;SDS011;63966;47.914;22.266;2023-04-24T01:19:28;12.35;;;6.95;;
75386;SDS011;63966;47.914;22.266;2023-04-24T01:22:35;12.03;;;7.10;;
75386;SDS011;63966;47.914;22.266;2023-04-24T01:25:38;20.25;;;8.13;;
75386;SDS011;63966;47.914;22.266;2023-04-24T01:28:42;12.98;;;7.40;;
75386;SDS011;63966;47.914;22.266;2023-04-24T01:31:45;12.88;;;6.72;;
75386;SDS011;63966;47.914;22.266;2023-04-24T01:34:49;12.00;;;6.88;;
75386;SDS011;63966;47.914;22.266;2023-04-24T01:37:54;11.10;;;6.43;;
75386;SDS011;63966;47.914;22.266;2023-04-24T01:40:57;11.20;;;6.55;;
75386;SDS011;63966;47.914;22.266;2023-04-24T01:44:01;12.43;;;6.57;;
75386;SDS011;63966;47.914;22.266;2023-04-24T01:47:05;12.25;;;7.32;;
75386;SDS011;63966;47.914;22.266;2023-04-24T01:50:09;12.10;;;6.40;;
75386;SDS011;63966;47.914;22.266;2023-04-24T01:53:13;12.77;;;6.10;;
75386;SDS011;63966;47.914;22.266;2023-04-24T01:56:17;15.10;;;6.78;;
75386;SDS011;63966;47.914;22.266;2023-04-24T01:59:22;12.10;;;6.82;;
75386;SDS011;63966;47.914;22.266;2023-04-24T02:02:27;11.65;;;6.40;;
75386;SDS011;63966;47.914;22.266;2023-04-24T02:05:32;12.40;;;6.50;;
75386;SDS011;63966;47.914;22.266;2023-04-24T02:08:37;10.20;;;6.07;;
75386;SDS011;63966;47.914;22.266;2023-04-24T02:11:41;10.50;;;6.70;;
75386;SDS011;63966;47.914;22.266;2023-04-24T02:14:45;12.50;;;6.80;;
75386;SDS011;63966;47.914;22.266;2023-04-24T02:17:48;10.93;;;6.65;;
75386;SDS011;63966;47.914;22.266;2023-04-24T02:20:52;12.15;;;6.97;;
75386;SDS011;63966;47.914;22.266;2023-04-24T02:23:56;11.07;;;6.73;;
75386;SDS011;63966;47.914;22.266;2023-04-24T02:27:00;11.45;;;6.55;;
75386;SDS011;63966;47.914;22.266;2023-04-24T02:30:05;12.43;;;6.63;;
75386;SDS011;63966;47.914;22.266;2023-04-24T02:33:09;11.98;;;6.70;;
75386;SDS011;63966;47.914;22.266;2023-04-24T02:36:13;11.77;;;7.03;;
75386;SDS011;63966;47.914;22.266;2023-04-24T02:39:17;10.70;;;6.13;;
75386;SDS011;63966;47.914;22.266;2023-04-24T02:42:20;10.63;;;6.03;;
75386;SDS011;63966;47.914;22.266;2023-04-24T02:45:24;14.13;;;6.85;;
75386;SDS011;63966;47.914;22.266;2023-04-24T02:48:33;12.90;;;6.30;;
75386;SDS011;63966;47.914;22.266;2023-04-24T02:51:37;15.00;;;6.88;;
75386;SDS011;63966;47.914;22.266;2023-04-24T02:54:43;13.13;;;6.60;;
75386;SDS011;63966;47.914;22.266;2023-04-24T02:57:47;11.32;;;6.32;;
75386;SDS011;63966;47.914;22.266;2023-04-24T03:00:54;13.55;;;7.00;;
75386;SDS011;63966;47.914;22.266;2023-04-24T03:03:58;11.02;;;6.00;;
75386;SDS011;63966;47.914;22.266;2023-04-24T03:07:02;15.25;;;6.50;;
75386;SDS011;63966;47.914;22.266;2023-04-24T03:10:07;12.13;;;6.53;;
75386;SDS011;63966;47.914;22.266;2023-04-24T03:13:10;10.98;;;6.28;;
75386;SDS011;63966;47.914;22.266;2023-04-24T03:16:14;11.88;;;6.28;;
75386;SDS011;63966;47.914;22.266;2023-04-24T03:19:17;13.35;;;6.78;;
75386;SDS011;63966;47.914;22.266;2023-04-24T03:22:44;14.07;;;7.45;;
75386;SDS011;63966;47.914;22.266;2023-04-24T03:25:47;14.10;;;7.13;;
75386;SDS011;63966;47.914;22.266;2023-04-24T03:28:54;12.30;;;7.25;;
75386;SDS011;63966;47.914;22.266;2023-04-24T03:31:58;12.63;;;6.72;;
75386;SDS011;63966;47.914;22.266;2023-04-24T03:35:02;11.85;;;6.55;;
75386;SDS011;63966;47.914;22.266;2023-04-24T03:38:06;19.95;;;10.38;;
75386;SDS011;63966;47.914;22.266;2023-04-24T03:41:30;27.10;;;11.83;;
75386;SDS011;63966;47.914;22.266;2023-04-24T03:44:42;18.88;;;8.23;;
75386;SDS011;63966;47.914;22.266;2023-04-24T03:47:46;13.23;;;7.28;;
75386;SDS011;63966;47.914;22.266;2023-04-24T03:50:49;13.40;;;6.22;;
75386;SDS011;63966;47.914;22.266;2023-04-24T03:53:53;11.07;;;6.20;;
75386;SDS011;63966;47.914;22.266;2023-04-24T03:56:58;11.60;;;6.37;;
75386;SDS011;63966;47.914;22.266;2023-04-24T04:00:06;10.68;;;6.57;;
75386;SDS011;63966;47.914;22.266;2023-04-24T04:03:15;11.88;;;6.53;;
75386;SDS011;63966;47.914;22.266;2023-04-24T04:06:19;14.13;;;7.38;;
75386;SDS011;63966;47.914;22.266;2023-04-24T04:09:25;11.48;;;6.35;;
75386;SDS011;63966;47.914;22.266;2023-04-24T04:12:30;11.40;;;7.07;;
75386;SDS011;63966;47.914;22.266;2023-04-24T04:15:33;14.02;;;7.28;;
75386;SDS011;63966;47.914;22.266;2023-04-24T04:18:37;10.73;;;6.15;;
75386;SDS011;63966;47.914;22.266;2023-04-24T04:21:42;12.18;;;6.40;;
75386;SDS011;63966;47.914;22.266;2023-04-24T04:25:04;10.52;;;6.57;;
75386;SDS011;63966;47.914;22.266;2023-04-24T04:28:09;10.10;;;6.43;;
75386;SDS011;63966;47.914;22.266;2023-04-24T04:31:12;11.32;;;6.60;;
75386;SDS011;63966;47.914;22.266;2023-04-24T04:34:16;9.98;;;6.38;;
75386;SDS011;63966;47.914;22.266;2023-04-24T04:37:20;10.65;;;6.30;;
75386;SDS011;63966;47.914;22.266;2023-04-24T04:40:37;11.80;;;6.25;;
75386;SDS011;63966;47.914;22.266;2023-04-24T04:43:41;9.60;;;6.17;;
75386;SDS011;63966;47.914;22.266;2023-04-24T04:46:45;9.82;;;6.18;;
75386;SDS011;63966;47.914;22.266;2023-04-24T04:49:56;10.18;;;6.15;;
75386;SDS011;63966;47.914;22.266;2023-04-24T04:53:02;12.70;;;6.20;;
75386;SDS011;63966;47.914;22.266;2023-04-24T04:56:09;10.05;;;6.07;;
75386;SDS011;63966;47.914;22.266;2023-04-24T04:59:18;9.13;;;5.63;;
75386;SDS011;63966;47.914;22.266;2023-04-24T05:02:24;8.75;;;5.88;;
75386;SDS011;63966;47.914;22.266;2023-04-24T05:05:28;7.57;;;5.43;;
75386;SDS011;63966;47.914;22.266;2023-04-24T05:08:31;10.43;;;5.30;;
75386;SDS011;63966;47.914;22.266;2023-04-24T05:11:34;10.38;;;5.68;;
75386;SDS011;63966;47.914;22.266;2023-04-24T05:14:38;10.23;;;5.73;;
75386;SDS011;63966;47.914;22.266;2023-04-24T05:17:43;7.95;;;5.22;;
75386;SDS011;63966;47.914;22.266;2023-04-24T05:20:47;9.20;;;5.70;;
75386;SDS011;63966;47.914;22.266;2023-04-24T05:23:51;9.43;;;5.50;;
75386;SDS011;63966;47.914;22.266;2023-04-24T05:27:20;9.38;;;5.85;;
75386;SDS011;63966;47.914;22.266;2023-04-24T05:30:24;7.80;;;5.47;;
75386;SDS011;63966;47.914;22.266;2023-04-24T05:33:29;8.10;;;5.25;;
75386;SDS011;63966;47.914;22.266;2023-04-24T05:36:33;8.18;;;5.20;;
75386;SDS011;63966;47.914;22.266;2023-04-24T05:39:36;12.02;;;5.30;;
75386;SDS011;63966;47.914;22.266;2023-04-24T05:42:40;8.57;;;6.00;;
75386;SDS011;63966;47.914;22.266;2023-04-24T05:45:43;8.13;;;4.90;;
75386;SDS011;63966;47.914;22.266;2023-04-24T05:48:47;7.55;;;5.60;;
75386;SDS011;63966;47.914;22.266;2023-04-24T05:51:50;7.80;;;5.05;;
75386;SDS011;63966;47.914;22.266;2023-04-24T05:54:54;6.90;;;4.60;;
75386;SDS011;63966;47.914;22.266;2023-04-24T05:58:00;7.03;;;4.90;;
75386;SDS011;63966;47.914;22.266;2023-04-24T06:01:05;7.57;;;4.73;;
75386;SDS011;63966;47.914;22.266;2023-04-24T06:04:10;7.22;;;4.80;;
75386;SDS011;63966;47.914;22.266;2023-04-24T06:07:16;7.72;;;4.50;;
75386;SDS011;63966;47.914;22.266;2023-04-24T06:10:20;9.85;;;5.53;;
75386;SDS011;63966;47.914;22.266;2023-04-24T06:13:24;8.50;;;5.47;;
75386;SDS011;63966;47.914;22.266;2023-04-24T06:16:48;7.13;;;4.60;;
75386;SDS011;63966;47.914;22.266;2023-04-24T06:20:04;7.78;;;4.80;;
75386;SDS011;63966;47.914;22.266;2023-04-24T06:23:10;8.95;;;5.28;;
75386;SDS011;63966;47.914;22.266;2023-04-24T06:26:13;7.95;;;4.90;;
75386;SDS011;63966;47.914;22.266;2023-04-24T06:29:16;7.25;;;4.53;;
75386;SDS011;63966;47.914;22.266;2023-04-24T06:32:23;8.37;;;4.93;;
75386;SDS011;63966;47.914;22.266;2023-04-24T06:35:27;6.20;;;4.07;;
75386;SDS011;63966;47.914;22.266;2023-04-24T06:38:31;7.90;;;4.70;;
75386;SDS011;63966;47.914;22.266;2023-04-24T06:41:35;7.30;;;4.75;;
75386;SDS011;63966;47.914;22.266;2023-04-24T06:44:38;8.10;;;4.85;;
75386;SDS011;63966;47.914;22.266;2023-04-24T06:47:45;7.23;;;4.40;;
75386;SDS011;63966;47.914;22.266;2023-04-24T06:50:49;8.20;;;4.18;;
75386;SDS011;63966;47.914;22.266;2023-04-24T06:53:53;7.15;;;4.43;;
75386;SDS011;63966;47.914;22.266;2023-04-24T06:56:58;8.27;;;4.70;;
75386;SDS011;63966;47.914;22.266;2023-04-24T07:00:03;7.88;;;5.50;;
75386;SDS011;63966;47.914;22.266;2023-04-24T07:03:10;8.17;;;4.60;;
75386;SDS011;63966;47.914;22.266;2023-04-24T07:06:19;6.72;;;4.53;;
75386;SDS011;63966;47.914;22.266;2023-04-24T07:09:29;9.10;;;4.88;;
75386;SDS011;63966;47.914;22.266;2023-04-24T07:12:41;7.47;;;4.65;;
75386;SDS011;63966;47.914;22.266;2023-04-24T07:15:49;6.97;;;4.60;;
75386;SDS011;63966;47.914;22.266;2023-04-24T07:18:56;7.67;;;4.60;;
75386;SDS011;63966;47.914;22.266;2023-04-24T07:22:00;7.47;;;5.20;;
75386;SDS011;63966;47.914;22.266;2023-04-24T07:25:06;8.18;;;4.97;;
75386;SDS011;63966;47.914;22.266;2023-04-24T07:28:10;7.38;;;5.00;;
75386;SDS011;63966;47.914;22.266;2023-04-24T07:31:14;7.35;;;5.30;;
75386;SDS011;63966;47.914;22.266;2023-04-24T07:34:17;8.03;;;5.30;;
75386;SDS011;63966;47.914;22.266;2023-04-24T07:37:21;8.52;;;4.70;;
75386;SDS011;63966;47.914;22.266;2023-04-24T07:40:24;8.18;;;5.00;;
75386;SDS011;63966;47.914;22.266;2023-04-24T07:43:28;8.98;;;5.32;;
75386;SDS011;63966;47.914;22.266;2023-04-24T07:46:32;9.15;;;5.63;;
75386;SDS011;63966;47.914;22.266;2023-04-24T07:49:36;7.60;;;4.47;;
75386;SDS011;63966;47.914;22.266;2023-04-24T07:52:42;10.55;;;4.93;;
75386;SDS011;63966;47.914;22.266;2023-04-24T07:55:46;8.50;;;4.80;;
75386;SDS011;63966;47.914;22.266;2023-04-24T07:58:49;8.95;;;5.40;;
75386;SDS011;63966;47.914;22.266;2023-04-24T08:01:53;7.00;;;4.55;;
75386;SDS011;63966;47.914;22.266;2023-04-24T08:04:56;9.83;;;4.40;;
75386;SDS011;63966;47.914;22.266;2023-04-24T08:08:01;7.53;;;5.05;;
75386;SDS011;63966;47.914;22.266;2023-04-24T08:11:05;9.80;;;4.85;;
75386;SDS011;63966;47.914;22.266;2023-04-24T08:14:08;7.85;;;4.20;;
75386;SDS011;63966;47.914;22.266;2023-04-24T08:17:14;7.22;;;4.57;;
75386;SDS011;63966;47.914;22.266;2023-04-24T08:20:19;7.63;;;4.67;;
75386;SDS011;63966;47.914;22.266;2023-04-24T08:23:23;7.97;;;4.75;;
75386;SDS011;63966;47.914;22.266;2023-04-24T08:26:26;7.10;;;4.80;;
75386;SDS011;63966;47.914;22.266;2023-04-24T08:29:30;6.93;;;4.50;;
75386;SDS011;63966;47.914;22.266;2023-04-24T08:32:35;8.13;;;4.93;;
75386;SDS011;63966;47.914;22.266;2023-04-24T08:35:39;11.57;;;4.83;;
75386;SDS011;63966;47.914;22.266;2023-04-24T08:38:43;9.52;;;5.00;;
75386;SDS011;63966;47.914;22.266;2023-04-24T08:41:48;7.97;;;4.28;;
75386;SDS011;63966;47.914;22.266;2023-04-24T08:44:53;6.75;;;4.28;;
75386;SDS011;63966;47.914;22.266;2023-04-24T08:47:59;7.70;;;4.32;;
75386;SDS011;63966;47.914;22.266;2023-04-24T08:51:04;7.27;;;4.40;;
75386;SDS011;63966;47.914;22.266;2023-04-24T08:54:11;7.32;;;4.40;;
75386;SDS011;63966;47.914;22.266;2023-04-24T08:57:14;8.80;;;4.55;;
75386;SDS011;63966;47.914;22.266;2023-04-24T09:00:20;7.82;;;4.20;;
75386;SDS011;63966;47.914;22.266;2023-04-24T09:03:24;6.60;;;4.20;;
75386;SDS011;63966;47.914;22.266;2023-04-24T09:06:30;9.33;;;4.63;;
75386;SDS011;63966;47.914;22.266;2023-04-24T09:09:34;8.15;;;4.25;;
75386;SDS011;63966;47.914;22.266;2023-04-24T09:12:41;8.23;;;4.22;;
75386;SDS011;63966;47.914;22.266;2023-04-24T09:15:46;7.47;;;4.35;;
75386;SDS011;63966;47.914;22.266;2023-04-24T09:18:50;10.82;;;4.40;;
75386;SDS011;63966;47.914;22.266;2023-04-24T09:21:54;6.77;;;3.93;;
75386;SDS011;63966;47.914;22.266;2023-04-24T09:25:04;9.38;;;3.70;;
75386;SDS011;63966;47.914;22.266;2023-04-24T09:28:11;7.15;;;4.20;;
75386;SDS011;63966;47.914;22.266;2023-04-24T09:31:18;9.75;;;4.10;;
75386;SDS011;63966;47.914;22.266;2023-04-24T09:34:25;7.90;;;4.05;;
75386;SDS011;63966;47.914;22.266;2023-04-24T09:37:30;10.67;;;4.30;;
75386;SDS011;63966;47.914;22.266;2023-04-24T09:40:38;8.23;;;4.25;;
75386;SDS011;63966;47.914;22.266;2023-04-24T09:43:45;8.70;;;4.10;;
75386;SDS011;63966;47.914;22.266;2023-04-24T09:46:50;6.72;;;3.90;;
75386;SDS011;63966;47.914;22.266;2023-04-24T09:49:57;7.70;;;4.18;;
75386;SDS011;63966;47.914;22.266;2023-04-24T09:53:03;7.27;;;4.20;;
75386;SDS011;63966;47.914;22.266;2023-04-24T09:56:08;10.60;;;4.32;;
75386;SDS011;63966;47.914;22.266;2023-04-24T09:59:15;14.50;;;4.57;;
75386;SDS011;63966;47.914;22.266;2023-04-24T10:02:20;7.75;;;4.20;;
75386;SDS011;63966;47.914;22.266;2023-04-24T10:05:28;9.18;;;4.35;;
75386;SDS011;63966;47.914;22.266;2023-04-24T10:08:36;13.50;;;3.80;;
75386;SDS011;63966;47.914;22.266;2023-04-24T10:11:43;9.38;;;4.20;;
75386;SDS011;63966;47.914;22.266;2023-04-24T10:14:48;8.30;;;4.20;;
75386;SDS011;63966;47.914;22.266;2023-04-24T10:17:52;9.00;;;4.40;;
75386;SDS011;63966;47.914;22.266;2023-04-24T10:20:56;7.80;;;4.45;;
75386;SDS011;63966;47.914;22.266;2023-04-24T10:24:02;9.60;;;4.20;;
75386;SDS011;63966;47.914;22.266;2023-04-24T10:27:07;7.93;;;4.03;;
75386;SDS011;63966;47.914;22.266;2023-04-24T10:30:12;10.65;;;4.15;;
75386;SDS011;63966;47.914;22.266;2023-04-24T10:33:16;7.32;;;4.38;;
75386;SDS011;63966;47.914;22.266;2023-04-24T10:41:17;9.90;;;4.40;;
75386;SDS011;63966;47.914;22.266;2023-04-24T10:44:25;6.80;;;3.97;;
75386;SDS011;63966;47.914;22.266;2023-04-24T10:47:39;8.70;;;4.22;;
75386;SDS011;63966;47.914;22.266;2023-04-24T10:53:51;11.30;;;5.07;;
75386;SDS011;63966;47.914;22.266;2023-04-24T11:00:20;8.80;;;5.30;;
75386;SDS011;63966;47.914;22.266;2023-04-24T11:03:32;9.57;;;5.40;;
75386;SDS011;63966;47.914;22.266;2023-04-24T11:06:36;14.00;;;4.70;;
75386;SDS011;63966;47.914;22.266;2023-04-24T11:09:40;10.65;;;4.78;;
75386;SDS011;63966;47.914;22.266;2023-04-24T11:12:46;10.07;;;4.30;;
75386;SDS011;63966;47.914;22.266;2023-04-24T11:16:37;8.93;;;4.47;;
75386;SDS011;63966;47.914;22.266;2023-04-24T11:19:24;8.50;;;4.47;;
75386;SDS011;63966;47.914;22.266;2023-04-24T11:22:29;7.93;;;4.60;;
75386;SDS011;63966;47.914;22.266;2023-04-24T11:25:36;7.97;;;4.70;;
75386;SDS011;63966;47.914;22.266;2023-04-24T11:28:49;15.67;;;4.20;;
75386;SDS011;63966;47.914;22.266;2023-04-24T11:31:52;15.10;;;4.00;;
75386;SDS011;63966;47.914;22.266;2023-04-24T11:38:05;16.00;;;4.68;;
75386;SDS011;63966;47.914;22.266;2023-04-24T11:41:29;10.63;;;4.88;;
75386;SDS011;63966;47.914;22.266;2023-04-24T11:44:33;10.43;;;4.03;;
75386;SDS011;63966;47.914;22.266;2023-04-24T11:47:39;10.30;;;4.30;;
75386;SDS011;63966;47.914;22.266;2023-04-24T11:50:45;9.35;;;4.40;;
75386;SDS011;63966;47.914;22.266;2023-04-24T11:53:49;9.27;;;3.97;;
75386;SDS011;63966;47.914;22.266;2023-04-24T11:57:06;9.38;;;4.40;;
75386;SDS011;63966;47.914;22.266;2023-04-24T12:00:31;11.70;;;4.23;;
75386;SDS011;63966;47.914;22.266;2023-04-24T12:03:36;9.55;;;4.35;;
75386;SDS011;63966;47.914;22.266;2023-04-24T12:06:58;9.85;;;4.60;;
75386;SDS011;63966;47.914;22.266;2023-04-24T12:10:03;12.68;;;6.05;;
75386;SDS011;63966;47.914;22.266;2023-04-24T12:13:08;7.22;;;4.15;;
75386;SDS011;63966;47.914;22.266;2023-04-24T12:16:13;10.63;;;5.17;;
75386;SDS011;63966;47.914;22.266;2023-04-24T12:19:20;11.55;;;5.10;;
75386;SDS011;63966;47.914;22.266;2023-04-24T12:22:25;8.88;;;4.82;;
75386;SDS011;63966;47.914;22.266;2023-04-24T12:25:29;9.05;;;5.00;;
75386;SDS011;63966;47.914;22.266;2023-04-24T12:28:35;13.63;;;4.88;;
75386;SDS011;63966;47.914;22.266;2023-04-24T12:31:39;9.63;;;4.43;;
75386;SDS011;63966;47.914;22.266;2023-04-24T12:34:43;9.15;;;4.68;;
75386;SDS011;63966;47.914;22.266;2023-04-24T12:37:47;10.88;;;4.40;;
75386;SDS011;63966;47.914;22.266;2023-04-24T12:44:11;15.02;;;4.50;;
75386;SDS011;63966;47.914;22.266;2023-04-24T12:47:15;7.30;;;3.83;;
75386;SDS011;63966;47.914;22.266;2023-04-24T12:50:18;9.40;;;4.80;;
75386;SDS011;63966;47.914;22.266;2023-04-24T12:53:22;9.30;;;5.07;;
75386;SDS011;63966;47.914;22.266;2023-04-24T12:56:28;8.10;;;4.35;;
75386;SDS011;63966;47.914;22.266;2023-04-24T12:59:32;11.48;;;4.43;;
75386;SDS011;63966;47.914;22.266;2023-04-24T13:02:36;8.20;;;5.07;;
75386;SDS011;63966;47.914;22.266;2023-04-24T13:05:40;8.52;;;4.65;;
75386;SDS011;63966;47.914;22.266;2023-04-24T13:08:44;8.60;;;4.63;;
75386;SDS011;63966;47.914;22.266;2023-04-24T13:11:50;7.03;;;4.32;;
75386;SDS011;63966;47.914;22.266;2023-04-24T13:14:53;9.18;;;5.20;;
75386;SDS011;63966;47.914;22.266;2023-04-24T13:17:58;7.00;;;4.43;;
75386;SDS011;63966;47.914;22.266;2023-04-24T13:21:01;7.45;;;4.57;;
75386;SDS011;63966;47.914;22.266;2023-04-24T13:24:05;7.30;;;4.32;;
75386;SDS011;63966;47.914;22.266;2023-04-24T13:27:10;7.63;;;4.45;;
75386;SDS011;63966;47.914;22.266;2023-04-24T13:30:13;8.40;;;4.50;;
75386;SDS011;63966;47.914;22.266;2023-04-24T13:33:17;9.47;;;4.97;;
75386;SDS011;63966;47.914;22.266;2023-04-24T13:36:20;9.52;;;5.30;;
75386;SDS011;63966;47.914;22.266;2023-04-24T13:39:24;7.65;;;5.13;;
75386;SDS011;63966;47.914;22.266;2023-04-24T13:42:28;15.00;;;6.13;;
75386;SDS011;63966;47.914;22.266;2023-04-24T13:45:32;9.93;;;6.00;;
75386;SDS011;63966;47.914;22.266;2023-04-24T13:48:35;10.77;;;5.77;;
75386;SDS011;63966;47.914;22.266;2023-04-24T13:51:39;12.55;;;6.07;;
75386;SDS011;63966;47.914;22.266;2023-04-24T13:54:43;12.38;;;5.80;;
75386;SDS011;63966;47.914;22.266;2023-04-24T13:57:47;15.90;;;7.22;;
75386;SDS011;63966;47.914;22.266;2023-04-24T14:00:51;12.02;;;6.90;;
75386;SDS011;63966;47.914;22.266;2023-04-24T14:03:55;11.83;;;6.63;;
75386;SDS011;63966;47.914;22.266;2023-04-24T14:06:59;14.07;;;10.10;;
75386;SDS011;63966;47.914;22.266;2023-04-24T14:10:02;10.95;;;5.70;;
75386;SDS011;63966;47.914;22.266;2023-04-24T14:13:07;12.05;;;6.97;;
75386;SDS011;63966;47.914;22.266;2023-04-24T14:16:11;13.27;;;6.43;;
75386;SDS011;63966;47.914;22.266;2023-04-24T14:19:15;9.33;;;6.50;;
75386;SDS011;63966;47.914;22.266;2023-04-24T14:22:18;11.80;;;9.40;;
75386;SDS011;63966;47.914;22.266;2023-04-24T14:25:22;9.20;;;5.63;;
75386;SDS011;63966;47.914;22.266;2023-04-24T14:28:26;9.27;;;5.75;;
75386;SDS011;63966;47.914;22.266;2023-04-24T14:31:29;10.07;;;5.95;;
75386;SDS011;63966;47.914;22.266;2023-04-24T14:34:33;10.20;;;5.70;;
75386;SDS011;63966;47.914;22.266;2023-04-24T14:37:37;10.10;;;6.45;;
75386;SDS011;63966;47.914;22.266;2023-04-24T14:40:43;11.27;;;6.95;;
75386;SDS011;63966;47.914;22.266;2023-04-24T14:44:06;14.38;;;6.68;;
75386;SDS011;63966;47.914;22.266;2023-04-24T14:47:10;13.70;;;7.85;;
75386;SDS011;63966;47.914;22.266;2023-04-24T14:50:14;13.97;;;7.13;;
75386;SDS011;63966;47.914;22.266;2023-04-24T14:53:17;12.18;;;6.50;;
75386;SDS011;63966;47.914;22.266;2023-04-24T14:56:21;9.80;;;6.55;;
75386;SDS011;63966;47.914;22.266;2023-04-24T14:59:25;15.25;;;11.43;;
75386;SDS011;63966;47.914;22.266;2023-04-24T15:02:29;13.50;;;11.40;;
75386;SDS011;63966;47.914;22.266;2023-04-24T15:05:33;12.83;;;9.10;;
75386;SDS011;63966;47.914;22.266;2023-04-24T15:08:38;10.30;;;6.85;;
75386;SDS011;63966;47.914;22.266;2023-04-24T15:11:41;9.77;;;6.57;;
75386;SDS011;63966;47.914;22.266;2023-04-24T15:14:45;14.07;;;8.65;;
75386;SDS011;63966;47.914;22.266;2023-04-24T15:17:48;12.88;;;8.40;;
75386;SDS011;63966;47.914;22.266;2023-04-24T15:20:52;35.33;;;16.07;;
75386;SDS011;63966;47.914;22.266;2023-04-24T15:23:55;31.67;;;13.57;;
75386;SDS011;63966;47.914;22.266;2023-04-24T15:26:59;14.45;;;8.05;;
75386;SDS011;63966;47.914;22.266;2023-04-24T15:30:03;13.38;;;6.78;;
75386;SDS011;63966;47.914;22.266;2023-04-24T15:33:07;14.40;;;8.10;;
75386;SDS011;63966;47.914;22.266;2023-04-24T15:36:11;13.90;;;8.00;;
75386;SDS011;63966;47.914;22.266;2023-04-24T15:39:14;14.00;;;7.68;;
75386;SDS011;63966;47.914;22.266;2023-04-24T15:42:18;11.98;;;7.30;;
75386;SDS011;63966;47.914;22.266;2023-04-24T15:45:22;12.05;;;7.40;;
75386;SDS011;63966;47.914;22.266;2023-04-24T15:48:29;11.75;;;7.40;;
75386;SDS011;63966;47.914;22.266;2023-04-24T15:51:33;14.00;;;8.37;;
75386;SDS011;63966;47.914;22.266;2023-04-24T15:54:37;18.00;;;9.32;;
75386;SDS011;63966;47.914;22.266;2023-04-24T15:57:42;17.80;;;9.82;;
75386;SDS011;63966;47.914;22.266;2023-04-24T16:00:46;21.50;;;14.25;;
75386;SDS011;63966;47.914;22.266;2023-04-24T16:03:50;23.30;;;17.17;;
75386;SDS011;63966;47.914;22.266;2023-04-24T16:06:53;20.27;;;11.87;;
75386;SDS011;63966;47.914;22.266;2023-04-24T16:09:59;14.85;;;8.73;;
75386;SDS011;63966;47.914;22.266;2023-04-24T16:13:02;24.27;;;14.63;;
75386;SDS011;63966;47.914;22.266;2023-04-24T16:16:06;18.63;;;13.38;;
75386;SDS011;63966;47.914;22.266;2023-04-24T16:19:10;12.20;;;8.85;;
75386;SDS011;63966;47.914;22.266;2023-04-24T16:22:13;13.67;;;8.67;;
75386;SDS011;63966;47.914;22.266;2023-04-24T16:25:17;14.18;;;8.00;;
75386;SDS011;63966;47.914;22.266;2023-04-24T16:28:21;12.48;;;8.15;;
75386;SDS011;63966;47.914;22.266;2023-04-24T16:31:25;14.05;;;8.70;;
75386;SDS011;63966;47.914;22.266;2023-04-24T16:34:28;14.60;;;9.82;;
75386;SDS011;63966;47.914;22.266;2023-04-24T16:37:32;15.80;;;10.53;;
75386;SDS011;63966;47.914;22.266;2023-04-24T16:40:36;13.65;;;9.65;;
75386;SDS011;63966;47.914;22.266;2023-04-24T16:43:40;15.55;;;11.13;;
75386;SDS011;63966;47.914;22.266;2023-04-24T16:46:44;14.07;;;10.27;;
75386;SDS011;63966;47.914;22.266;2023-04-24T16:49:49;15.63;;;10.55;;
75386;SDS011;63966;47.914;22.266;2023-04-24T16:52:52;19.63;;;11.50;;
75386;SDS011;63966;47.914;22.266;2023-04-24T16:55:56;21.05;;;12.38;;
75386;SDS011;63966;47.914;22.266;2023-04-24T16:59:00;19.55;;;11.45;;
75386;SDS011;63966;47.914;22.266;2023-04-24T17:02:04;18.08;;;11.75;;
75386;SDS011;63966;47.914;22.266;2023-04-24T17:05:08;18.58;;;12.35;;
75386;SDS011;63966;47.914;22.266;2023-04-24T17:08:12;22.50;;;16.23;;
75386;SDS011;63966;47.914;22.266;2023-04-24T17:11:16;35.05;;;22.27;;
75386;SDS011;63966;47.914;22.266;2023-04-24T17:14:20;33.88;;;20.20;;
75386;SDS011;63966;47.914;22.266;2023-04-24T17:17:25;21.58;;;14.93;;
75386;SDS011;63966;47.914;22.266;2023-04-24T17:20:29;27.33;;;15.25;;
75386;SDS011;63966;47.914;22.266;2023-04-24T17:23:33;25.43;;;13.17;;
75386;SDS011;63966;47.914;22.266;2023-04-24T17:26:36;15.27;;;8.80;;
75386;SDS011;63966;47.914;22.266;2023-04-24T17:29:40;14.80;;;10.38;;
75386;SDS011;63966;47.914;22.266;2023-04-24T17:32:44;13.23;;;8.90;;
75386;SDS011;63966;47.914;22.266;2023-04-24T17:35:48;14.32;;;8.90;;
75386;SDS011;63966;47.914;22.266;2023-04-24T17:38:52;15.13;;;8.43;;
75386;SDS011;63966;47.914;22.266;2023-04-24T17:41:56;12.52;;;8.52;;
75386;SDS011;63966;47.914;22.266;2023-04-24T17:45:00;12.40;;;8.20;;
75386;SDS011;63966;47.914;22.266;2023-04-24T17:48:03;13.50;;;7.97;;
75386;SDS011;63966;47.914;22.266;2023-04-24T17:51:07;12.45;;;8.65;;
75386;SDS011;63966;47.914;22.266;2023-04-24T17:54:11;12.63;;;8.17;;
75386;SDS011;63966;47.914;22.266;2023-04-24T17:57:16;14.10;;;8.43;;
75386;SDS011;63966;47.914;22.266;2023-04-24T18:00:20;12.23;;;7.70;;
75386;SDS011;63966;47.914;22.266;2023-04-24T18:03:24;12.82;;;7.72;;
75386;SDS011;63966;47.914;22.266;2023-04-24T18:06:28;11.80;;;7.82;;
75386;SDS011;63966;47.914;22.266;2023-04-24T18:09:32;13.13;;;7.67;;
75386;SDS011;63966;47.914;22.266;2023-04-24T18:12:35;14.45;;;8.10;;
75386;SDS011;63966;47.914;22.266;2023-04-24T18:15:39;12.73;;;8.15;;
75386;SDS011;63966;47.914;22.266;2023-04-24T18:18:45;12.93;;;7.95;;
75386;SDS011;63966;47.914;22.266;2023-04-24T18:21:49;11.95;;;7.90;;
75386;SDS011;63966;47.914;22.266;2023-04-24T18:24:53;12.77;;;8.13;;
75386;SDS011;63966;47.914;22.266;2023-04-24T18:27:57;14.82;;;7.95;;